Billings Logan International Airport
KBIL : now visible

Airfield :











YOU CAN JOIN US ON...

 
LOGIN :

Register | Disclaimer

   EN    FR    IT 

 









Legend :    VFR   Marginal VFR   IFR   Intensive IFR   Very Intensive IFR
Visi :
Ceiling :
>= 8 km
>= 3000ft
5 to 8 km
1000 to 3000 ft
1500m to 5 km
500 to 1000 ft
800 to 1500m
200 to 500 ft
< 800m
< 200 ft
Symbols :   Thunderstorms  Fog  Heavy snow  Heavy precipitations  Wind > 20 kt







- Airport Elevation : 3652 ft
- IATA code : BIL


KBIL - Billings Logan International

CURRENT METAR :
  • 210406Z 30011KT 9SM BKN034 09/07 A2993 RMK AO2 T00890072

EXPIRED METARs :
  • 210353Z 29012KT 10SM BKN028 OVC034 09/07 A2994 RMK AO2 SLP132 T00940072
  • 210253Z 26009KT 10SM OVC029 09/07 A2993 RMK AO2 SLP132 60007 T00940072 53003
  • 210236Z 25006KT 10SM BKN029 OVC046 09/08 A2993 RMK AO2 T00940078
  • 210153Z 29009KT 10SM FEW050 SCT080 SCT100 09/08 A2992 RMK AO2 RAB09E21 SLP128 P0000 T00890078

TAF KBIL
Valid from the 21 at 03:00 until the 22 at 00:00 UTC


210244Z 2103/2124 25006KT P6SM VCSH BKN029 OVC045
FM210800 30019G26KT 5SM -RA BR BKN003 OVC005
FM211000 30019G26KT 5SM -RA BR OVC010
FM211500 27012KT P6SM VCSH SCT015 OVC025
FM211800 27014G20KT P6SM VCSH SCT050
No reported NOTAMs for that airfield.



MET'MAP, your aeronautical weather chart ! - Copyright ORBIFLY December 2007 - Disclaimer

ORBIFLY MET'MAP TEAM :

Programming & Development : Alexandra Zaïnal
Concept & Development : Baudouin d'Aumeries
Co-Development & Prog : Marc-Olivier Méhu
Technical & hardware support : Manuel Goepfert

Contact : metmap@orbifly.com




SOURCES & CREDITS :

   NOAA       Earth
Advisory